メインページ
METAR-TAF:

METAR-TAF

空港 :

旭川, 日本

旭川駐屯地

緯度: 43-48N, 経度: 142-22E, 海抜: 115m

現時点の気象観測

当レポートは30分前の23:30(UTC)に作成
変向風 1kt
気温 -14°C
湿度 78%
気圧 1016 hPa
視程: 6000m
高度1000ftの雲はほとんどない
高度2500ftの雲は散在している
高度4000ftの千切れ雲あり
弱いにわか雪

METAR: RJCA 182330Z VRB01KT 6000 -SHSN FEW010 SCT025 BKN040 M14/M17 Q1016 RMK 1ST010 3CU025 7CU040 A3000

時間: 09:00 (00:00 UTC)


TAF: 見つかりません

4,000以上の空港の気象観測と天気予報(METAR報とTAF報)

利用可能な観測所は地図上に黄色い丸と赤い丸で示す。

丸の上にカーソルを重ねると観測所名を参照できる。

次にクリックすると気象観測と天気予報を参照できる。

マップの切り替え:黒色「×」印の緑ボタンをクリックして拡大、「-」印の緑ボタンをクリックして縮小、緑色の三角印をクリックして隣りの地図に切り替え


METAR-TAF: